Pas de pilote en ligne...

Compagnie Fsx-France ! Un nouveau look pour votre VA, par : Julien & Co

 METAR ET TAF INFORMATION
METAR FOR LFLL :
LFLL 131230Z 01004KT 320V130 9999 FEW043 BKN230 22/11 Q1014 NOSIG

 AÉROPORT DE AÉROPORT

 INFORMATIONS DE PISTE
Piste 18L Longueur de la piste 2670 m = 8760 ft Largeur de la piste 45 m = 148 ft
Élévation de la piste 780 ft Seuil de la piste déplacés 0 ft Runway heading 175
Piste 36R Longueur de la piste 2670 m = 8760 ft Largeur de la piste 45 m = 148 ft
Élévation de la piste 821 ft Seuil de la piste déplacés 0 ft Runway heading 355
Piste 18R Longueur de la piste 4000 m = 13124 ft Largeur de la piste 45 m = 148 ft
Élévation de la piste 758 ft Seuil de la piste déplacés 0 ft Runway heading 175
Piste 36L Longueur de la piste 4000 m = 13124 ft Largeur de la piste 45 m = 148 ft
Élévation de la piste 813 ft Seuil de la piste déplacés 0 ft Runway heading 355
 AÉROPORT FRÉQUENCES
Type A/D Nom Lyon appro Féquence 136.075 MHZ
Type ATIS Nom ATIS Féquence 126.175 MHZ
Type GND Nom GND Féquence 121.825 MHZ
Type INFO Nom INFO Féquence 135.2 MHZ
Type PFLT Nom PREFLIGHT Féquence 121.7 MHZ
Type TWR Nom TWR Féquence 120.45 MHZ

 AIDES A LA NAVIGATION
Type VOR-DME Nom Lyon/Saint Exupery Féquence 114750 KHZ